createdAt,value
2022-11-17T00:01:34.722Z,3.05
2022-11-17T00:06:57.997Z,3.58
2022-11-17T00:12:22.717Z,2.63
2022-11-17T00:17:47.107Z,2.47
2022-11-17T00:23:08.891Z,3.00
2022-11-17T00:28:30.671Z,2.33
2022-11-17T00:33:52.439Z,2.53
2022-11-17T00:39:16.125Z,3.13
2022-11-17T00:44:37.922Z,4.28
2022-11-17T00:49:59.699Z,2.85
2022-11-17T00:55:21.574Z,3.00
2022-11-17T01:00:43.408Z,2.75
2022-11-17T01:06:10.855Z,2.40
2022-11-17T01:11:33.288Z,2.97
2022-11-17T01:16:55.503Z,2.78
2022-11-17T01:22:17.382Z,3.38
2022-11-17T01:27:39.278Z,2.60
2022-11-17T01:33:01.087Z,2.47
2022-11-17T01:38:22.916Z,3.00
2022-11-17T01:43:50.788Z,2.65
2022-11-17T01:49:26.573Z,3.97
2022-11-17T01:54:48.717Z,2.80
2022-11-17T02:00:12.078Z,2.90
2022-11-17T02:05:55.019Z,3.53
2022-11-17T02:11:19.943Z,2.97
2022-11-17T02:16:41.713Z,4.72
2022-11-17T02:22:37.403Z,2.25
2022-11-17T02:28:08.337Z,2.72
2022-11-17T02:33:42.102Z,3.08
2022-11-17T02:39:14.901Z,3.72
2022-11-17T02:44:40.244Z,3.47
2022-11-17T02:50:10.615Z,3.80
2022-11-17T02:55:35.531Z,2.50
2022-11-17T03:01:06.133Z,3.83
2022-11-17T03:06:51.072Z,3.70
2022-11-17T03:12:21.707Z,4.13
2022-11-17T03:18:22.206Z,2.70
2022-11-17T03:23:51.491Z,3.20
2022-11-17T03:29:16.823Z,3.58
2022-11-17T03:34:44.479Z,4.25
2022-11-17T03:40:10.651Z,3.15
2022-11-17T03:45:38.327Z,3.97
2022-11-17T03:51:18.139Z,4.88
2022-11-17T03:56:58.830Z,3.85
2022-11-17T04:02:21.749Z,3.63
2022-11-17T04:07:46.594Z,3.17
2022-11-17T04:13:08.510Z,3.72
2022-11-17T04:18:30.274Z,2.85
2022-11-17T04:23:52.028Z,3.17
2022-11-17T04:29:13.799Z,4.18
2022-11-17T04:34:35.589Z,5.03
2022-11-17T04:39:57.370Z,2.65
2022-11-17T04:45:19.107Z,3.97
2022-11-17T04:50:40.862Z,2.95
2022-11-17T04:56:03.834Z,3.88
2022-11-17T05:01:27.174Z,3.45
2022-11-17T05:06:48.957Z,4.97
2022-11-17T05:12:10.865Z,2.95
2022-11-17T05:17:32.645Z,2.88
2022-11-17T05:22:54.398Z,2.50
2022-11-17T05:28:16.225Z,4.93
2022-11-17T05:33:38.955Z,8.85
2022-11-17T05:39:01.375Z,4.72
2022-11-17T05:44:23.213Z,3.85
2022-11-17T05:49:45.138Z,4.53
2022-11-17T05:55:07.445Z,2.90
2022-11-17T06:00:30.828Z,2.88
2022-11-17T06:05:53.442Z,4.03
2022-11-17T06:11:15.228Z,5.13
2022-11-17T06:16:43.292Z,3.08
2022-11-17T06:22:12.058Z,5.57
2022-11-17T06:27:36.848Z,3.97
2022-11-17T06:32:59.482Z,4.03
2022-11-17T06:38:21.239Z,2.58
2022-11-17T06:43:42.995Z,1.35
2022-11-17T06:49:08.420Z,4.13
2022-11-17T06:54:30.184Z,3.90
2022-11-17T06:59:51.974Z,2.20
2022-11-17T07:05:13.765Z,2.15
2022-11-17T07:10:36.484Z,3.13
2022-11-17T07:16:06.596Z,2.75
2022-11-17T07:21:28.365Z,3.80
2022-11-17T07:26:50.129Z,3.42
2022-11-17T07:32:12.815Z,3.67
2022-11-17T07:37:34.585Z,4.32
2022-11-17T07:42:56.371Z,5.10
2022-11-17T07:48:18.195Z,4.60
2022-11-17T07:53:39.998Z,3.38
2022-11-17T07:59:01.843Z,4.25
2022-11-17T08:04:23.641Z,4.10
2022-11-17T08:09:45.390Z,2.80
2022-11-17T08:15:08.055Z,5.80
2022-11-17T08:20:30.116Z,4.60
2022-11-17T08:25:51.888Z,5.68
2022-11-17T08:31:14.187Z,4.55
2022-11-17T08:36:36.008Z,5.38
2022-11-17T08:41:57.774Z,5.80
2022-11-17T08:47:19.530Z,5.72
2022-11-17T08:52:41.294Z,4.70
2022-11-17T08:58:04.051Z,5.47
2022-11-17T09:03:25.827Z,6.45
2022-11-17T09:08:47.855Z,5.05
2022-11-17T09:14:09.734Z,6.93
2022-11-17T09:19:31.479Z,8.20
2022-11-17T09:24:53.481Z,4.57
2022-11-17T09:30:15.466Z,6.35
2022-11-17T09:35:37.223Z,6.80
2022-11-17T09:40:59.618Z,5.32
2022-11-17T09:46:29.788Z,6.25
2022-11-17T09:51:52.730Z,6.85
2022-11-17T09:57:42.340Z,7.97
2022-11-17T10:03:14.741Z,5.45
2022-11-17T10:08:46.702Z,6.50
2022-11-17T10:14:08.480Z,7.90
2022-11-17T10:19:32.411Z,6.28
2022-11-17T10:24:54.335Z,6.35
2022-11-17T10:30:19.091Z,7.95
2022-11-17T10:35:40.893Z,7.63
2022-11-17T10:41:03.369Z,7.78
2022-11-17T10:46:25.303Z,9.82
2022-11-17T10:52:05.308Z,8.27
2022-11-17T10:57:27.219Z,9.40
2022-11-17T11:02:49.036Z,5.82
2022-11-17T11:08:22.051Z,6.88
2022-11-17T11:13:57.377Z,7.32
2022-11-17T11:19:20.415Z,6.53
2022-11-17T11:25:03.092Z,7.90
2022-11-17T11:30:25.203Z,8.02
2022-11-17T11:36:08.309Z,7.05
2022-11-17T11:41:55.020Z,5.80
2022-11-17T11:47:16.751Z,7.35
2022-11-17T11:52:43.504Z,6.38
2022-11-17T11:58:21.835Z,8.07
2022-11-17T12:03:56.287Z,5.18
2022-11-17T12:09:44.796Z,4.50
2022-11-17T12:15:31.589Z,5.28
2022-11-17T12:21:00.713Z,9.30
2022-11-17T12:26:28.262Z,5.10
2022-11-17T12:31:54.941Z,6.75
2022-11-17T12:37:19.569Z,6.43
2022-11-17T12:43:24.455Z,5.72
2022-11-17T12:48:58.409Z,6.88
2022-11-17T12:54:54.497Z,6.60
2022-11-17T13:00:27.290Z,7.55
2022-11-17T13:06:33.706Z,6.05
2022-11-17T13:12:03.717Z,5.05
2022-11-17T13:23:05.762Z,4.97
2022-11-17T13:28:30.614Z,6.75
2022-11-17T13:34:10.767Z,6.00
2022-11-17T13:39:32.963Z,6.45
2022-11-17T13:44:57.257Z,8.70
2022-11-17T13:50:28.253Z,6.30
2022-11-17T13:55:50.837Z,9.25
2022-11-17T14:01:12.685Z,8.70
2022-11-17T14:07:01.668Z,9.40
2022-11-17T14:12:23.520Z,5.95
2022-11-17T14:17:54.185Z,7.03
2022-11-17T14:23:17.878Z,6.80
2022-11-17T14:28:39.697Z,10.02
2022-11-17T14:34:01.552Z,8.18
2022-11-17T14:39:23.362Z,9.60
2022-11-17T14:44:45.123Z,8.70
2022-11-17T14:50:11.447Z,7.97
2022-11-17T14:55:33.354Z,10.80
2022-11-17T15:00:55.112Z,7.57
2022-11-17T15:06:20.128Z,8.30
2022-11-17T15:11:42.392Z,8.20
2022-11-17T15:17:05.093Z,8.40
2022-11-17T15:22:27.767Z,9.77
2022-11-17T15:27:49.580Z,9.40
2022-11-17T15:33:11.434Z,9.18
2022-11-17T15:38:33.401Z,11.90
2022-11-17T15:43:55.242Z,13.48
2022-11-17T15:49:17.336Z,10.05
2022-11-17T15:54:39.435Z,12.88
2022-11-17T16:00:01.186Z,14.77
2022-11-17T16:05:22.962Z,14.70
2022-11-17T16:10:44.739Z,13.45
2022-11-17T16:16:07.566Z,17.13
2022-11-17T16:21:29.383Z,17.58
2022-11-17T16:26:51.177Z,20.52
2022-11-17T16:32:13.024Z,19.45
2022-11-17T16:37:34.829Z,19.58
2022-11-17T16:42:58.632Z,18.92
2022-11-17T16:48:20.450Z,20.63
2022-11-17T16:53:43.286Z,19.20
2022-11-17T16:59:05.143Z,16.30
2022-11-17T17:04:29.702Z,17.55
2022-11-17T17:09:51.487Z,18.02
2022-11-17T17:15:13.276Z,19.35
2022-11-17T17:20:35.044Z,40.30
2022-11-17T17:26:07.225Z,33.60
2022-11-17T17:31:31.535Z,24.98
2022-11-17T17:36:53.288Z,18.35
2022-11-17T17:42:15.206Z,19.63
2022-11-17T17:47:36.967Z,19.65
2022-11-17T17:52:58.727Z,21.38
2022-11-17T17:58:20.507Z,24.50
2022-11-17T18:03:44.015Z,21.85
2022-11-17T18:09:07.519Z,22.23
2022-11-17T18:14:29.312Z,20.77
2022-11-17T18:19:51.094Z,21.15
2022-11-17T18:25:17.683Z,20.70
2022-11-17T18:30:39.759Z,21.58
2022-11-17T18:36:09.051Z,20.30
2022-11-17T18:41:31.147Z,23.60
2022-11-17T18:46:54.262Z,21.85
2022-11-17T18:52:18.789Z,19.00
2022-11-17T18:57:44.650Z,21.88
2022-11-17T19:03:06.934Z,22.10
2022-11-17T19:08:29.736Z,23.20
2022-11-17T19:13:51.703Z,25.05
2022-11-17T19:19:14.312Z,22.88
2022-11-17T19:24:36.485Z,27.02
2022-11-17T19:29:58.268Z,20.48
2022-11-17T19:35:22.855Z,21.17
2022-11-17T19:40:44.758Z,19.67
2022-11-17T19:46:11.915Z,22.15
2022-11-17T19:51:35.227Z,20.63
2022-11-17T19:56:57.037Z,18.40
2022-11-17T20:02:18.841Z,24.23
2022-11-17T20:07:40.741Z,29.60
2022-11-17T20:13:02.561Z,27.88
2022-11-17T20:18:24.348Z,23.35
2022-11-17T20:23:46.731Z,22.58
2022-11-17T20:29:08.808Z,26.77
2022-11-17T20:34:30.597Z,17.58
2022-11-17T20:39:52.460Z,19.17
2022-11-17T20:45:14.219Z,25.55
2022-11-17T20:50:35.968Z,22.13
2022-11-17T20:55:59.364Z,18.73
2022-11-17T21:01:22.029Z,21.85
2022-11-17T21:06:44.350Z,20.77
2022-11-17T21:12:06.399Z,18.88
2022-11-17T21:17:28.337Z,19.38
2022-11-17T21:22:50.212Z,14.40
2022-11-17T21:28:11.986Z,16.27
2022-11-17T21:33:34.841Z,12.55
2022-11-17T21:38:57.241Z,12.40
2022-11-17T21:44:19.088Z,11.77
2022-11-17T21:49:40.886Z,16.52
2022-11-17T21:55:02.805Z,21.40
2022-11-17T22:00:24.633Z,20.52
2022-11-17T22:05:46.407Z,19.23
2022-11-17T22:11:14.012Z,19.35
2022-11-17T22:16:37.721Z,25.30
2022-11-17T22:21:59.564Z,25.13
2022-11-17T22:27:21.382Z,33.08
2022-11-17T22:32:45.412Z,31.30
2022-11-17T22:38:07.398Z,27.85
2022-11-17T22:43:29.999Z,23.95
2022-11-17T22:48:52.407Z,19.38
2022-11-17T22:54:14.184Z,28.05
2022-11-17T22:59:36.014Z,30.17
2022-11-17T23:04:57.766Z,30.30
2022-11-17T23:10:19.671Z,30.92
2022-11-17T23:15:41.433Z,34.20
2022-11-17T23:21:05.589Z,33.40
2022-11-17T23:26:27.387Z,27.30
2022-11-17T23:31:49.130Z,25.83
2022-11-17T23:37:11.093Z,17.98
2022-11-17T23:42:33.464Z,25.15
2022-11-17T23:47:57.202Z,20.65
2022-11-17T23:53:18.971Z,19.50
2022-11-17T23:58:41.474Z,18.75
